createdAt,value
2023-02-07T00:04:58.176Z,82
2023-02-07T00:14:58.995Z,82
2023-02-07T00:24:59.940Z,82
2023-02-07T00:45:01.374Z,82
2023-02-07T00:55:01.638Z,82
2023-02-07T01:05:02.583Z,82
2023-02-07T01:15:02.587Z,82
2023-02-07T01:25:03.489Z,82
2023-02-07T01:35:04.455Z,82
2023-02-07T01:45:05.020Z,82
2023-02-07T01:55:05.564Z,82
2023-02-07T02:05:05.974Z,82
2023-02-07T02:15:06.578Z,82
2023-02-07T02:25:06.826Z,82
2023-02-07T02:35:07.150Z,81
2023-02-07T02:45:07.941Z,81
2023-02-07T02:55:08.487Z,81
2023-02-07T03:05:08.611Z,81
2023-02-07T03:25:10.368Z,81
2023-02-07T03:35:11.055Z,81
2023-02-07T03:45:11.869Z,81
2023-02-07T04:05:13.556Z,81
2023-02-07T04:15:13.825Z,81
2023-02-07T04:25:14.566Z,81
2023-02-07T04:35:15.424Z,81
2023-02-07T04:45:16.349Z,81
2023-02-07T04:55:16.715Z,81
2023-02-07T05:05:16.994Z,81
2023-02-07T05:25:18.790Z,81
2023-02-07T05:45:19.716Z,81
2023-02-07T05:55:20.064Z,81
2023-02-07T06:05:21.113Z,81
2023-02-07T06:25:21.742Z,81
2023-02-07T06:35:22.407Z,80
2023-02-07T06:45:22.512Z,80
2023-02-07T06:55:23.107Z,80
2023-02-07T07:05:24.003Z,80
2023-02-07T07:35:25.791Z,80
2023-02-07T08:05:27.878Z,80
2023-02-07T08:15:28.355Z,80
2023-02-07T08:25:28.854Z,80
2023-02-07T08:35:29.390Z,85
2023-02-07T08:55:30.442Z,85
2023-02-07T09:18:25.853Z,83
2023-02-07T09:28:26.144Z,85
2023-02-07T09:38:26.566Z,85
2023-02-07T09:48:27.397Z,84
2023-02-07T09:58:27.542Z,83
2023-02-07T10:08:33.406Z,84
2023-02-07T10:18:28.804Z,84
2023-02-07T10:28:29.144Z,85
2023-02-07T10:38:30.006Z,85
2023-02-07T10:48:30.440Z,86
2023-02-07T10:58:31.183Z,86
2023-02-07T11:08:31.811Z,86
2023-02-07T11:18:32.068Z,86
2023-02-07T11:28:32.465Z,86
2023-02-07T11:38:33.361Z,86
2023-02-07T11:48:33.456Z,86
2023-02-07T11:58:33.804Z,86
2023-02-07T12:08:34.203Z,86
2023-02-07T12:18:34.622Z,86
2023-02-07T12:28:35.014Z,86
2023-02-07T12:38:35.665Z,86
2023-02-07T12:48:36.417Z,86
2023-02-07T12:58:37.198Z,86
2023-02-07T13:08:37.427Z,86
2023-02-07T13:18:43.378Z,86
2023-02-07T13:28:44.254Z,86
2023-02-07T13:38:45.162Z,86
2023-02-07T13:48:46.066Z,86
2023-02-07T13:58:46.298Z,86
2023-02-07T14:08:46.611Z,86
2023-02-07T14:18:46.802Z,85
2023-02-07T14:28:47.455Z,84
2023-02-07T14:38:47.998Z,83
2023-02-07T14:48:48.324Z,83
2023-02-07T14:58:48.726Z,82
2023-02-07T15:08:49.325Z,82
2023-02-07T15:18:50.094Z,81
2023-02-07T15:28:50.774Z,81
2023-02-07T15:38:50.927Z,81
2023-02-07T15:48:51.702Z,80
2023-02-07T15:58:51.895Z,80
2023-02-07T16:08:52.023Z,80
2023-02-07T16:18:52.497Z,81
2023-02-07T16:28:53.413Z,81
2023-02-07T16:38:53.519Z,81
2023-02-07T16:48:54.299Z,81
2023-02-07T16:58:54.944Z,81
2023-02-07T17:08:55.097Z,82
2023-02-07T17:18:55.329Z,82
2023-02-07T17:28:56.008Z,83
2023-02-07T17:38:57.031Z,83
2023-02-07T17:48:58.101Z,84
2023-02-07T17:58:58.621Z,84
2023-02-07T18:08:59.647Z,84
2023-02-07T18:19:00.641Z,85
2023-02-07T18:29:00.883Z,85
2023-02-07T18:39:01.732Z,85
2023-02-07T18:49:01.991Z,85
2023-02-07T18:59:02.221Z,85
2023-02-07T19:09:02.737Z,86
2023-02-07T19:19:02.939Z,86
2023-02-07T19:29:03.896Z,86
2023-02-07T19:39:04.106Z,86
2023-02-07T19:49:05.050Z,86
2023-02-07T19:59:05.242Z,86
2023-02-07T20:09:05.792Z,86
2023-02-07T20:19:06.191Z,87
2023-02-07T20:29:06.675Z,87
2023-02-07T20:39:07.039Z,87
2023-02-07T20:49:08.055Z,87
2023-02-07T20:59:08.400Z,87
2023-02-07T21:19:09.990Z,87
2023-02-07T21:29:11.013Z,87
2023-02-07T21:39:12.062Z,87
2023-02-07T21:49:12.658Z,87
2023-02-07T21:59:13.011Z,87
2023-02-07T22:09:13.969Z,88
2023-02-07T22:19:14.682Z,88
2023-02-07T22:29:15.710Z,88
2023-02-07T22:39:16.397Z,88
2023-02-07T22:49:17.486Z,88
2023-02-07T22:59:18.266Z,88
2023-02-07T23:09:18.768Z,88
2023-02-07T23:19:19.765Z,88
2023-02-07T23:29:20.088Z,88
2023-02-07T23:39:20.484Z,88
2023-02-07T23:49:20.814Z,88
2023-02-07T23:59:21.345Z,88
